createdAt,value
2018-07-25T00:02:18.698Z,22.80
2018-07-25T00:04:46.898Z,22.70
2018-07-25T00:07:15.081Z,22.60
2018-07-25T00:09:43.269Z,22.60
2018-07-25T00:12:11.453Z,22.50
2018-07-25T00:14:39.634Z,22.50
2018-07-25T00:17:07.817Z,22.40
2018-07-25T00:19:36.011Z,22.40
2018-07-25T00:22:04.192Z,22.30
2018-07-25T00:24:32.382Z,22.20
2018-07-25T00:27:00.594Z,22.20
2018-07-25T00:29:28.753Z,22.20
2018-07-25T00:31:56.926Z,22.10
2018-07-25T00:34:25.147Z,22.10
2018-07-25T00:36:53.304Z,22.10
2018-07-25T00:39:21.485Z,22.00
2018-07-25T00:41:49.678Z,22.00
2018-07-25T00:44:17.862Z,22.00
2018-07-25T00:46:46.058Z,21.90
2018-07-25T00:49:14.242Z,21.90
2018-07-25T00:51:42.449Z,21.90
2018-07-25T00:54:10.617Z,21.90
2018-07-25T00:56:38.806Z,21.80
2018-07-25T00:59:07.006Z,21.80
2018-07-25T01:01:35.191Z,21.80
2018-07-25T01:04:03.366Z,21.70
2018-07-25T01:06:31.554Z,21.70
2018-07-25T01:08:59.738Z,21.60
2018-07-25T01:11:27.925Z,21.60
2018-07-25T01:13:56.103Z,21.60
2018-07-25T01:16:24.297Z,21.50
2018-07-25T01:18:52.474Z,21.50
2018-07-25T01:21:20.668Z,21.50
2018-07-25T01:23:48.858Z,21.50
2018-07-25T01:26:17.065Z,21.50
2018-07-25T01:28:45.217Z,21.40
2018-07-25T01:31:13.434Z,21.40
2018-07-25T01:33:41.589Z,21.40
2018-07-25T01:36:09.794Z,21.40
2018-07-25T01:38:37.965Z,21.30
2018-07-25T01:41:06.066Z,21.30
2018-07-25T01:43:34.265Z,21.30
2018-07-25T01:46:02.441Z,21.30
2018-07-25T01:48:30.621Z,21.20
2018-07-25T01:50:59.037Z,21.10
2018-07-25T01:53:27.417Z,21.10
2018-07-25T01:55:55.596Z,21.10
2018-07-25T01:58:23.897Z,21.10
2018-07-25T02:00:52.069Z,21.10
2018-07-25T02:03:20.261Z,21.00
2018-07-25T02:05:48.353Z,21.00
2018-07-25T02:08:16.688Z,21.00
2018-07-25T02:10:45.350Z,21.00
2018-07-25T02:13:15.477Z,20.90
2018-07-25T02:15:43.889Z,20.90
2018-07-25T02:18:12.042Z,20.90
2018-07-25T02:20:40.221Z,20.90
2018-07-25T02:23:08.314Z,20.90
2018-07-25T02:25:36.496Z,20.90
2018-07-25T02:28:04.761Z,20.90
2018-07-25T02:30:32.878Z,20.80
2018-07-25T02:33:01.054Z,20.80
2018-07-25T02:35:29.139Z,20.80
2018-07-25T02:37:57.334Z,20.80
2018-07-25T02:40:26.437Z,20.70
2018-07-25T02:42:54.625Z,20.70
2018-07-25T02:45:22.821Z,20.70
2018-07-25T02:47:51.199Z,20.70
2018-07-25T02:50:20.310Z,20.70
2018-07-25T02:52:48.503Z,20.70
2018-07-25T02:55:16.709Z,20.70
2018-07-25T02:57:44.881Z,20.70
2018-07-25T03:00:12.970Z,20.70
2018-07-25T03:02:41.152Z,20.60
2018-07-25T03:05:09.335Z,20.60
2018-07-25T03:07:37.530Z,20.60
2018-07-25T03:10:05.979Z,20.50
2018-07-25T03:12:34.134Z,20.50
2018-07-25T03:15:02.305Z,20.50
2018-07-25T03:17:30.477Z,20.50
2018-07-25T03:19:58.653Z,20.50
2018-07-25T03:22:26.837Z,20.50
2018-07-25T03:24:54.920Z,20.50
2018-07-25T03:27:23.007Z,20.40
2018-07-25T03:29:51.181Z,20.40
2018-07-25T03:32:19.282Z,20.40
2018-07-25T03:34:47.473Z,20.40
2018-07-25T03:37:15.678Z,20.40
2018-07-25T03:39:43.830Z,20.30
2018-07-25T03:42:11.925Z,20.30
2018-07-25T03:44:40.099Z,20.30
2018-07-25T03:47:08.231Z,20.20
2018-07-25T03:49:36.364Z,20.20
2018-07-25T03:52:04.462Z,20.20
2018-07-25T03:54:33.817Z,20.20
2018-07-25T03:57:01.962Z,20.10
2018-07-25T03:59:30.170Z,20.10
2018-07-25T04:01:58.519Z,20.10
2018-07-25T04:04:26.627Z,20.10
2018-07-25T04:06:54.806Z,20.10
2018-07-25T04:09:22.882Z,20.10
2018-07-25T04:11:50.984Z,20.10
2018-07-25T04:14:19.290Z,20.10
2018-07-25T04:16:47.453Z,20.10
2018-07-25T04:19:15.997Z,20.10
2018-07-25T04:21:44.147Z,20.10
2018-07-25T04:24:12.327Z,20.10
2018-07-25T04:26:40.515Z,20.10
2018-07-25T04:29:08.712Z,20.10
2018-07-25T04:31:36.902Z,20.10
2018-07-25T04:34:05.151Z,20.10
2018-07-25T04:36:33.306Z,20.10
2018-07-25T04:39:01.450Z,20.10
2018-07-25T04:41:29.649Z,20.10
2018-07-25T04:43:57.822Z,20.10
2018-07-25T04:46:26.221Z,20.10
2018-07-25T04:48:54.209Z,20.10
2018-07-25T04:51:22.397Z,20.10
2018-07-25T04:53:50.573Z,20.10
2018-07-25T04:56:18.774Z,20.10
2018-07-25T04:58:46.957Z,20.10
2018-07-25T05:01:15.138Z,20.10
2018-07-25T05:03:43.318Z,20.10
2018-07-25T05:06:11.506Z,20.10
2018-07-25T05:08:39.697Z,20.20
2018-07-25T05:11:07.933Z,20.30
2018-07-25T05:13:36.074Z,20.30
2018-07-25T05:16:04.641Z,20.30
2018-07-25T05:21:00.814Z,20.40
2018-07-25T05:23:28.911Z,20.50
2018-07-25T05:25:56.989Z,20.60
2018-07-25T05:28:25.423Z,20.60
2018-07-25T05:30:53.606Z,20.60
2018-07-25T05:33:21.797Z,20.60
2018-07-25T05:35:49.947Z,20.70
2018-07-25T05:38:18.258Z,20.70
2018-07-25T05:40:46.214Z,20.80
2018-07-25T05:43:14.302Z,20.90
2018-07-25T05:45:42.483Z,20.90
2018-07-25T05:48:10.598Z,21.00
2018-07-25T05:50:38.821Z,21.00
2018-07-25T05:53:06.997Z,21.30
2018-07-25T05:55:35.144Z,21.60
2018-07-25T05:58:03.330Z,21.80
2018-07-25T06:00:32.417Z,21.90
2018-07-25T06:03:00.718Z,22.10
2018-07-25T06:05:28.697Z,22.20
2018-07-25T06:07:56.798Z,22.30
2018-07-25T06:10:25.921Z,22.30
2018-07-25T06:12:54.180Z,22.30
2018-07-25T06:15:22.335Z,22.40
2018-07-25T06:17:50.486Z,22.40
2018-07-25T06:20:19.673Z,22.40
2018-07-25T06:22:47.909Z,22.40
2018-07-25T06:25:16.066Z,22.40
2018-07-25T06:27:44.848Z,22.50
2018-07-25T06:30:12.922Z,22.50
2018-07-25T06:32:41.731Z,22.60
2018-07-25T06:35:09.914Z,22.60
2018-07-25T06:37:38.109Z,22.70
2018-07-25T06:40:07.161Z,22.70
2018-07-25T06:42:35.541Z,22.80
2018-07-25T06:45:04.478Z,22.80
2018-07-25T06:47:32.644Z,22.80
2018-07-25T06:50:00.786Z,22.90
2018-07-25T06:52:28.970Z,22.90
2018-07-25T06:54:57.202Z,22.90
2018-07-25T06:57:25.426Z,23.00
2018-07-25T06:59:53.528Z,23.00
2018-07-25T07:02:21.630Z,23.10
2018-07-25T07:04:49.795Z,23.10
2018-07-25T07:07:18.011Z,23.20
2018-07-25T07:09:46.177Z,23.20
2018-07-25T07:12:14.431Z,23.20
2018-07-25T07:14:42.546Z,23.20
2018-07-25T07:17:11.066Z,23.20
2018-07-25T07:19:39.248Z,23.30
2018-07-25T07:22:07.418Z,23.40
2018-07-25T07:24:35.611Z,23.40
2018-07-25T07:27:03.773Z,23.40
2018-07-25T07:29:31.878Z,23.50
2018-07-25T07:32:00.059Z,23.40
2018-07-25T07:34:28.246Z,23.50
2018-07-25T07:36:56.441Z,23.50
2018-07-25T07:39:24.690Z,23.60
2018-07-25T07:44:20.914Z,23.80
2018-07-25T07:46:49.078Z,23.90
2018-07-25T07:49:17.269Z,24.00
2018-07-25T07:51:45.457Z,24.20
2018-07-25T07:54:13.553Z,24.30
2018-07-25T07:56:41.716Z,24.50
2018-07-25T07:59:09.942Z,24.70
2018-07-25T08:01:38.086Z,24.80
2018-07-25T08:04:06.413Z,24.90
2018-07-25T08:06:34.639Z,25.10
2018-07-25T08:09:02.825Z,25.20
2018-07-25T08:11:31.042Z,25.40
2018-07-25T08:13:59.165Z,25.50
2018-07-25T08:16:27.350Z,25.60
2018-07-25T08:18:55.502Z,25.70
2018-07-25T08:21:23.686Z,25.90
2018-07-25T08:23:51.995Z,26.00
2018-07-25T08:26:20.171Z,26.10
2018-07-25T08:28:48.363Z,26.30
2018-07-25T08:31:16.642Z,26.40
2018-07-25T08:33:44.846Z,26.50
2018-07-25T08:36:12.921Z,26.60
2018-07-25T08:38:42.364Z,26.80
2018-07-25T08:41:10.535Z,26.90
2018-07-25T08:43:39.866Z,27.10
2018-07-25T08:46:09.182Z,27.20
2018-07-25T08:48:37.602Z,27.40
2018-07-25T08:51:05.797Z,27.50
2018-07-25T08:53:34.562Z,27.60
2018-07-25T08:56:02.697Z,27.80
2018-07-25T08:58:30.926Z,27.90
2018-07-25T09:00:59.618Z,27.90
2018-07-25T09:03:27.794Z,28.00
2018-07-25T09:05:55.953Z,28.00
2018-07-25T09:10:52.024Z,28.30
2018-07-25T09:13:20.357Z,28.50
2018-07-25T09:15:48.506Z,28.60
2018-07-25T09:18:16.623Z,28.80
2018-07-25T09:20:44.769Z,29.00
2018-07-25T09:23:12.870Z,29.20
2018-07-25T09:25:41.118Z,29.30
2018-07-25T09:28:09.170Z,29.50
2018-07-25T09:30:38.376Z,29.60
2018-07-25T09:33:06.575Z,29.80
2018-07-25T09:35:34.737Z,30.00
2018-07-25T09:38:02.957Z,30.20
2018-07-25T09:40:31.110Z,30.30
2018-07-25T09:42:59.318Z,30.50
2018-07-25T09:45:27.490Z,30.70
2018-07-25T09:47:55.667Z,30.90
2018-07-25T09:50:24.806Z,31.00
2018-07-25T09:52:53.004Z,31.20
2018-07-25T09:55:21.161Z,31.20
2018-07-25T09:57:49.334Z,31.20
2018-07-25T10:00:23.635Z,31.30
2018-07-25T10:02:52.345Z,31.30
2018-07-25T10:05:20.449Z,31.40
2018-07-25T10:07:48.640Z,31.50
2018-07-25T10:10:16.845Z,31.50
2018-07-25T10:12:45.085Z,31.70
2018-07-25T10:15:13.243Z,31.90
2018-07-25T10:17:41.404Z,32.10
2018-07-25T10:20:09.585Z,32.20
2018-07-25T10:22:37.754Z,32.30
2018-07-25T10:25:05.925Z,32.40
2018-07-25T10:27:34.239Z,32.50
2018-07-25T10:30:02.100Z,32.60
2018-07-25T10:32:30.193Z,32.70
2018-07-25T10:34:58.410Z,32.90
2018-07-25T10:37:26.573Z,32.90
2018-07-25T10:39:54.746Z,33.10
2018-07-25T10:42:23.289Z,33.20
2018-07-25T10:44:51.442Z,33.30
2018-07-25T10:47:19.694Z,33.30
2018-07-25T10:49:47.806Z,33.30
2018-07-25T10:52:15.986Z,33.40
2018-07-25T10:54:44.097Z,33.60
2018-07-25T10:57:12.169Z,33.70
2018-07-25T10:59:40.370Z,33.90
2018-07-25T11:02:08.548Z,34.00
2018-07-25T11:04:36.722Z,34.10
2018-07-25T11:07:04.898Z,34.10
2018-07-25T11:09:33.015Z,34.20
2018-07-25T11:12:01.113Z,34.40
2018-07-25T11:14:29.291Z,34.60
2018-07-25T11:16:57.446Z,34.80
2018-07-25T11:19:25.573Z,34.90
2018-07-25T11:21:53.726Z,35.00
2018-07-25T11:24:21.939Z,35.20
2018-07-25T11:26:50.199Z,35.30
2018-07-25T11:29:18.402Z,35.40
2018-07-25T11:31:46.480Z,35.40
2018-07-25T11:34:14.665Z,35.40
2018-07-25T11:36:42.862Z,35.50
2018-07-25T11:39:12.390Z,35.60
2018-07-25T11:41:40.596Z,35.70
2018-07-25T11:44:09.082Z,35.80
2018-07-25T11:46:37.244Z,35.90
2018-07-25T11:49:05.654Z,35.90
2018-07-25T11:51:33.814Z,35.90
2018-07-25T11:54:02.007Z,35.90
2018-07-25T11:56:30.322Z,35.50
2018-07-25T11:58:58.486Z,35.10
2018-07-25T12:01:26.692Z,35.00
2018-07-25T12:03:54.974Z,35.10
2018-07-25T12:06:23.357Z,35.20
2018-07-25T12:08:51.657Z,35.40
2018-07-25T12:11:19.834Z,35.50
2018-07-25T12:13:48.002Z,35.70
2018-07-25T12:16:16.286Z,35.90
2018-07-25T12:18:44.381Z,36.10
2018-07-25T12:21:12.611Z,36.10
2018-07-25T12:23:40.694Z,36.10
2018-07-25T12:26:08.846Z,36.20
2018-07-25T12:28:37.015Z,36.20
2018-07-25T12:31:05.195Z,36.10
2018-07-25T12:33:33.282Z,36.40
2018-07-25T12:36:01.380Z,36.80
2018-07-25T12:38:29.454Z,37.30
2018-07-25T12:40:57.546Z,37.70
2018-07-25T12:43:25.750Z,38.10
2018-07-25T12:45:53.922Z,38.30
2018-07-25T12:48:22.258Z,37.80
2018-07-25T12:50:50.529Z,37.00
2018-07-25T12:53:18.729Z,36.40
2018-07-25T12:55:46.758Z,35.90
2018-07-25T12:58:14.910Z,35.70
2018-07-25T13:00:43.044Z,36.10
2018-07-25T13:03:11.217Z,36.30
2018-07-25T13:05:39.310Z,36.40
2018-07-25T13:08:07.489Z,36.50
2018-07-25T13:10:35.660Z,36.80
2018-07-25T13:13:03.773Z,37.20
2018-07-25T13:15:31.963Z,37.60
2018-07-25T13:18:00.134Z,37.90
2018-07-25T13:20:28.222Z,38.20
2018-07-25T13:22:56.412Z,38.50
2018-07-25T13:25:24.513Z,38.90
2018-07-25T13:27:52.569Z,39.10
2018-07-25T13:30:21.697Z,39.30
2018-07-25T13:32:49.863Z,39.60
2018-07-25T13:37:45.953Z,39.60
2018-07-25T13:40:14.238Z,39.10
2018-07-25T13:42:42.351Z,38.50
2018-07-25T13:45:10.526Z,37.90
2018-07-25T13:47:38.702Z,37.20
2018-07-25T13:50:06.866Z,36.70
2018-07-25T13:52:34.958Z,36.30
2018-07-25T13:55:03.178Z,36.20
2018-07-25T13:57:31.329Z,36.10
2018-07-25T13:59:59.410Z,36.20
2018-07-25T14:02:27.507Z,36.40
2018-07-25T14:04:55.673Z,36.30
2018-07-25T14:07:23.853Z,36.40
2018-07-25T14:09:51.949Z,36.50
2018-07-25T14:12:20.051Z,36.40
2018-07-25T14:14:48.229Z,36.50
2018-07-25T14:17:16.444Z,36.30
2018-07-25T14:19:44.632Z,36.10
2018-07-25T14:22:12.810Z,36.00
2018-07-25T14:24:41.163Z,35.80
2018-07-25T14:27:09.503Z,35.50
2018-07-25T14:29:37.566Z,35.30
2018-07-25T14:32:06.038Z,35.00
2018-07-25T14:34:34.142Z,34.80
2018-07-25T14:37:02.370Z,34.70
2018-07-25T14:39:30.525Z,34.70
2018-07-25T14:41:58.733Z,34.50
2018-07-25T14:44:26.912Z,34.40
2018-07-25T14:46:55.136Z,34.30
2018-07-25T14:49:23.571Z,34.10
2018-07-25T14:51:51.763Z,34.10
2018-07-25T14:54:19.996Z,34.00
2018-07-25T14:56:48.182Z,34.20
2018-07-25T14:59:16.658Z,34.30
2018-07-25T15:01:44.826Z,34.30
2018-07-25T15:04:12.937Z,34.40
2018-07-25T15:06:41.098Z,34.70
2018-07-25T15:09:10.309Z,34.80
2018-07-25T15:11:38.482Z,34.80
2018-07-25T15:14:06.994Z,34.90
2018-07-25T15:16:35.175Z,35.00
2018-07-25T15:19:03.358Z,35.30
2018-07-25T15:21:31.530Z,35.60
2018-07-25T15:24:01.070Z,35.90
2018-07-25T15:26:29.749Z,36.10
2018-07-25T15:28:58.778Z,36.40
2018-07-25T15:31:27.078Z,36.60
2018-07-25T15:33:55.410Z,36.60
2018-07-25T15:36:40.718Z,36.50
2018-07-25T15:39:12.491Z,36.50
2018-07-25T15:41:40.978Z,36.50
2018-07-25T15:44:09.223Z,36.70
2018-07-25T15:46:37.731Z,36.80
2018-07-25T15:49:06.245Z,36.90
2018-07-25T15:51:34.441Z,36.90
2018-07-25T15:54:02.970Z,36.90
2018-07-25T15:56:31.135Z,37.00
2018-07-25T15:58:59.322Z,37.10
2018-07-25T16:01:27.579Z,37.10
2018-07-25T16:03:55.693Z,37.20
2018-07-25T16:06:24.015Z,37.20
2018-07-25T16:08:52.501Z,37.10
2018-07-25T16:11:20.705Z,36.90
2018-07-25T16:13:49.079Z,36.60
2018-07-25T16:16:17.746Z,36.20
2018-07-25T16:18:46.073Z,35.70
2018-07-25T16:21:14.225Z,35.10
2018-07-25T16:23:42.313Z,34.60
2018-07-25T16:26:10.386Z,34.10
2018-07-25T16:28:38.525Z,33.80
2018-07-25T16:31:07.315Z,33.50
2018-07-25T16:33:35.486Z,33.30
2018-07-25T16:36:03.691Z,33.10
2018-07-25T16:38:31.856Z,33.00
2018-07-25T16:40:59.942Z,32.90
2018-07-25T16:43:28.010Z,32.80
2018-07-25T16:45:56.086Z,32.70
2018-07-25T16:48:24.195Z,32.60
2018-07-25T16:50:52.406Z,32.50
2018-07-25T16:53:20.569Z,32.50
2018-07-25T16:55:48.743Z,32.40
2018-07-25T16:58:16.937Z,32.30
2018-07-25T17:00:45.115Z,32.30
2018-07-25T17:03:13.566Z,32.20
2018-07-25T17:05:41.685Z,32.10
2018-07-25T17:08:09.797Z,32.00
2018-07-25T17:10:37.979Z,32.00
2018-07-25T17:13:06.187Z,32.00
2018-07-25T17:15:34.334Z,31.90
2018-07-25T17:18:02.528Z,31.80
2018-07-25T17:20:30.605Z,31.80
2018-07-25T17:22:58.733Z,31.70
2018-07-25T17:25:26.958Z,31.70
2018-07-25T17:27:55.114Z,31.60
2018-07-25T17:30:23.278Z,31.50
2018-07-25T17:32:51.661Z,31.50
2018-07-25T17:35:19.781Z,31.30
2018-07-25T17:37:48.026Z,31.30
2018-07-25T17:40:16.201Z,31.20
2018-07-25T17:42:44.313Z,31.10
2018-07-25T17:45:12.706Z,31.00
2018-07-25T17:47:41.726Z,30.90
2018-07-25T17:50:10.313Z,30.90
2018-07-25T17:52:39.013Z,30.90
2018-07-25T17:55:07.225Z,30.90
2018-07-25T17:57:35.377Z,30.90
2018-07-25T18:00:04.755Z,30.80
2018-07-25T18:02:32.913Z,30.70
2018-07-25T18:05:01.058Z,30.60
2018-07-25T18:07:29.239Z,30.50
2018-07-25T18:09:57.434Z,30.40
2018-07-25T18:12:25.617Z,30.00
2018-07-25T18:14:53.903Z,29.80
2018-07-25T18:17:22.009Z,29.40
2018-07-25T18:19:50.214Z,29.20
2018-07-25T18:22:18.366Z,29.00
2018-07-25T18:24:46.661Z,28.90
2018-07-25T18:27:14.855Z,28.70
2018-07-25T18:29:43.013Z,28.60
2018-07-25T18:32:11.218Z,28.40
2018-07-25T18:34:39.410Z,28.30
2018-07-25T18:37:07.638Z,28.10
2018-07-25T18:39:35.776Z,28.10
2018-07-25T18:42:03.955Z,28.00
2018-07-25T18:44:32.046Z,27.90
2018-07-25T18:47:00.262Z,27.70
2018-07-25T18:49:28.423Z,27.50
2018-07-25T18:51:56.615Z,27.30
2018-07-25T18:54:25.657Z,27.10
2018-07-25T18:56:53.794Z,26.90
2018-07-25T18:59:22.005Z,26.60
2018-07-25T19:01:50.193Z,26.40
2018-07-25T19:04:18.358Z,26.10
2018-07-25T19:06:46.561Z,26.00
2018-07-25T19:09:16.185Z,25.80
2018-07-25T19:11:44.780Z,25.60
2018-07-25T19:14:18.555Z,25.50
2018-07-25T19:19:14.674Z,25.40
2018-07-25T19:21:42.952Z,25.40
2018-07-25T19:24:11.109Z,25.30
2018-07-25T19:26:40.218Z,25.30
2018-07-25T19:29:08.439Z,25.30
2018-07-25T19:31:36.605Z,25.20
2018-07-25T19:34:04.778Z,25.20
2018-07-25T19:36:32.854Z,25.20
2018-07-25T19:39:00.950Z,25.10
2018-07-25T19:41:29.261Z,25.20
2018-07-25T19:43:57.426Z,25.10
2018-07-25T19:46:25.510Z,25.10
2018-07-25T19:48:53.594Z,25.10
2018-07-25T19:51:21.770Z,25.10
2018-07-25T19:53:49.877Z,25.00
2018-07-25T19:56:18.042Z,25.00
2018-07-25T19:58:46.138Z,25.00
2018-07-25T20:01:14.329Z,25.00
2018-07-25T20:03:42.582Z,25.00
2018-07-25T20:06:10.772Z,25.00
2018-07-25T20:08:38.887Z,25.00
2018-07-25T20:11:07.425Z,24.90
2018-07-25T20:13:39.830Z,24.90
2018-07-25T20:16:07.873Z,24.90
2018-07-25T20:18:36.038Z,24.90
2018-07-25T20:21:04.315Z,24.90
2018-07-25T20:23:32.421Z,25.00
2018-07-25T20:26:00.617Z,25.00
2018-07-25T20:28:28.797Z,25.00
2018-07-25T20:30:57.005Z,25.00
2018-07-25T20:33:25.182Z,25.00
2018-07-25T20:35:53.377Z,25.00
2018-07-25T20:38:21.689Z,25.00
2018-07-25T20:40:49.826Z,25.00
2018-07-25T20:43:19.164Z,25.00
2018-07-25T20:45:47.317Z,25.00
2018-07-25T20:48:15.513Z,25.00
2018-07-25T20:50:43.590Z,25.00
2018-07-25T20:53:11.785Z,25.00
2018-07-25T20:55:39.971Z,24.90
2018-07-25T20:58:08.157Z,24.90
2018-07-25T21:00:36.768Z,24.80
2018-07-25T21:03:06.292Z,24.80
2018-07-25T21:05:34.800Z,24.80
2018-07-25T21:08:03.179Z,24.80
2018-07-25T21:10:31.601Z,24.80
2018-07-25T21:12:59.755Z,24.70
2018-07-25T21:15:27.930Z,24.70
2018-07-25T21:17:56.106Z,24.70
2018-07-25T21:20:24.394Z,24.70
2018-07-25T21:22:52.586Z,24.70
2018-07-25T21:25:20.788Z,24.70
2018-07-25T21:27:48.954Z,24.70
2018-07-25T21:30:17.182Z,24.80
2018-07-25T21:32:45.327Z,24.70
2018-07-25T21:35:13.548Z,24.70
2018-07-25T21:37:41.706Z,24.70
2018-07-25T21:40:09.895Z,24.70
2018-07-25T21:42:38.107Z,24.70
2018-07-25T21:45:06.519Z,24.60
2018-07-25T21:47:34.662Z,24.60
2018-07-25T21:50:02.850Z,24.50
2018-07-25T21:52:31.047Z,24.50
2018-07-25T21:54:59.227Z,24.50
2018-07-25T21:57:27.430Z,24.50
2018-07-25T21:59:55.595Z,24.50
2018-07-25T22:02:23.782Z,24.50
2018-07-25T22:04:51.974Z,24.50
2018-07-25T22:07:20.162Z,24.50
2018-07-25T22:09:48.345Z,24.50
2018-07-25T22:12:16.555Z,24.40
2018-07-25T22:14:44.715Z,24.40
2018-07-25T22:17:12.902Z,24.40
2018-07-25T22:19:41.122Z,24.30
2018-07-25T22:22:09.272Z,24.40
2018-07-25T22:24:37.454Z,24.40
2018-07-25T22:27:05.538Z,24.30
2018-07-25T22:29:33.626Z,24.30
2018-07-25T22:32:01.811Z,24.20
2018-07-25T22:34:29.902Z,24.20
2018-07-25T22:36:58.073Z,24.20
2018-07-25T22:41:54.040Z,24.20
2018-07-25T22:44:22.130Z,24.20
2018-07-25T22:46:50.227Z,24.20
2018-07-25T22:49:18.401Z,24.20
2018-07-25T22:51:46.473Z,24.20
2018-07-25T22:54:14.587Z,24.20
2018-07-25T22:56:42.757Z,24.20
2018-07-25T22:59:10.939Z,24.20
2018-07-25T23:01:39.035Z,24.20
2018-07-25T23:04:07.222Z,24.20
2018-07-25T23:06:35.421Z,24.20
2018-07-25T23:09:05.628Z,24.20
2018-07-25T23:11:33.726Z,24.20
2018-07-25T23:14:01.897Z,24.10
2018-07-25T23:16:29.989Z,24.10
2018-07-25T23:18:58.086Z,24.00
2018-07-25T23:21:26.274Z,24.00
2018-07-25T23:23:54.452Z,24.00
2018-07-25T23:26:22.556Z,24.00
2018-07-25T23:28:50.732Z,24.00
2018-07-25T23:31:18.922Z,24.00
2018-07-25T23:33:47.102Z,24.00
2018-07-25T23:36:15.294Z,24.00
2018-07-25T23:38:43.474Z,24.00
2018-07-25T23:41:11.686Z,24.00
2018-07-25T23:43:40.874Z,23.90
2018-07-25T23:46:09.065Z,24.00
2018-07-25T23:48:37.261Z,23.90
2018-07-25T23:51:05.450Z,23.90
2018-07-25T23:53:33.633Z,24.00
2018-07-25T23:56:01.866Z,23.90
2018-07-25T23:58:29.989Z,23.90
